Fitzhugh, Mississippi
Current Conditions -  °F | °C
As of 2:35 AM on Sunday 23 Nov 2014 (Local Time) from KRNV Reporting Station
Overcast Overcast  
Wind Chill: 58°   Ceiling: 1300
Heat Index: 58°   Visibility: 10mi
Dew Point: 55°   Wind: 9mph
Humidity: 92%   Direction: 120°ESE
Pressure: 29.81"   Gusts: NA
Location:  33.8731°N, 90.5512°W
Report Text: KRNV 230835Z AUTO 12008KT 10SM OVC013 14/13 A2981 RMK AO2 T01430130
Loading
Personal Weather Stations






























Interactive Weather Map New forecast layout! Learn more

10-Day Weather Forecast

Advertisements
Track Severe Weather on mobile